Detall de PIREP

Printer-friendly versionPDF version

[2015/12/13 16:53:00]
Flight IATA:CT2211
Pilot Number:012
Company ICAO:CAT
Aircraft Type:A320/E
PAX:150
Departing Airport: LFPG
Destination Airport: LFMP
Alternate Airport:LEBL
Online: VATSIM
Route:ERIXU UN860 ETAMO UN855 OLRAK UM731 AMLIR UY27 SIJAN
Flight Level:F330
No Slew and time accel
No pause
Crash detect
Detect pilot in Cockpit between each 30 and 45 minutes
16:53 Zero fuel Weight: 130294 Lbs, Fuel Weight: 14698 Lbs
16:53 VATSIM:LFPG 131630Z VRB05KT 6000 FEW003 BKN004 06/05 Q1021 NOSIG
16:53 VATSIM:LFMP 131630Z AUTO 00000KT 9999 SCT015/// SCT020/// BKN220/// 10/07 Q1020
16:54 Parking Brakes off
17:08 Take-off
17:08 Take off Weight: 143485 Lbs
17:08 Wind: 000º @ 005 Knots Heading: 266º
17:08 POS N48º 59´ 47´´ E002º 34´ 03´´
17:08 Flaps:3 at 182 Knots
17:08 Gear Up: 184 Knots
17:09 Flaps:2 at 195 Knots
17:09 Flaps:1 at 200 Knots
17:09 Flaps:0 at 194 Knots
17:23 Wind:229º@011 Knots Heading: 175º Ground Speed: 442 Knots Altitude 31400 ft
17:24 TOC
17:24 Fuel Weight: 9384 Lb
17:38 Wind:194º@002 Knots Heading: 174º Ground Speed: 442 Knots Altitude 33195 ft
17:48 TOD
17:48 Fuel Weight: 6930 Lb
17:53 Wind:330º@012 Knots Heading: 175º Ground Speed: 372 Knots Altitude 23461 ft
18:08 Wind:188º@003 Knots Heading: 166º Ground Speed: 256 Knots Altitude 5200 ft
18:15 Flaps:1 at 203 Knots
18:15 Flaps:3 at 188 Knots
18:16 Gear Down: 176 Knots
18:16 Flaps:4 at 158 Knots
18:16 Flaps:5 at 150 Knots
18:18 TouchDown:Rate -282 ft/min Speed: 130 Knots
18:19 VATSIM:LFMP 131800Z AUTO 27002KT 7000 NCD 07/05 Q1021
18:19 Land
18:19 Wind:289º@001 Knots
18:19 Heading: 328º
18:19 Flight Duration: 01:11
18:19 Landing Weight: 134836 Lbs
18:19 POS N42º 44´ 53´´ E002º 52´ 00´´
18:21 Parking brakes on
18:21 Block to Block Duration: 01:27
18:21 Final Fuel: 4270 Lbls
18:21 Spent Fuel: 10427 Lbls
18:21 Flight Length: 419 NM
18:21 TOD Land Length: 145 NM

Exportar CSV

Powered by Drupal - Modified by Danger4k